Sp Venture — C6DF3 — position and weather

sailwx.info

Track history (hours):
 
Tides and Currents Weather Stations Pressure Air Temp Water Temp Dewpoint Dewpoint Depression Visibility Wind Speed Wind Dir Waves Ship Positions

Sp Venture

Last reported at 2018-Apr-22 20:04 UTC. Time now 2018-Apr-24 02:49 UTC.
Position N 56°26' E 011°04'.

Length 90 m; draft 6.1 m.

Type: Cargo ship. MMSI: 311000658.

Date/timePositionNaut miles runAvg speedWind from/ knotsBaromVisibWave heightAir tempDewpointWater temp
2018-Apr-22 20:04N 56°26' E 011°04'1 8.5
2018-Apr-22 19:57N 56°27' E 011°04'4 8.8
2018-Apr-22 19:30N 56°31' E 011°03'4 9.1
2018-Apr-22 19:01N 56°35' E 011°02'4 8.9
2018-Apr-22 18:31N 56°40' E 011°01'4 8.7
2018-Apr-22 18:00N 56°44' E 010°60'4 8.9
2018-Apr-22 17:31N 56°47' E 010°54'5 9.2
2018-Apr-22 17:00N 56°51' E 010°48'4 8.5
2018-Apr-22 16:30N 56°55' E 010°49'6 8.9
2018-Apr-22 15:53N 57°00' E 010°50'3 9.1
2018-Apr-22 15:30N 57°04' E 010°49'4 9.0
2018-Apr-22 15:00N 57°08' E 010°46'6 9.1
2018-Apr-22 14:19N 57°14' E 010°43'3 8.8
2018-Apr-22 14:00N 57°17' E 010°42'4 8.7
2018-Apr-22 13:31N 57°21' E 010°43'4 8.5
2018-Apr-22 13:00N 57°25' E 010°43'4 8.8
2018-Apr-22 12:31N 57°30' E 010°44'4 8.6
2018-Apr-22 12:01N 57°34' E 010°44'4 8.6
2018-Apr-22 11:30N 57°38' E 010°45'4 8.5
2018-Apr-22 11:00N 57°42' E 010°45'4 8.4
2018-Apr-22 10:31N 57°46' E 010°43'510.2
2018-Apr-22 09:59N 57°47' E 010°33'5 9.9
2018-Apr-22 09:28N 57°47' E 010°24'510.4
2018-Apr-22 09:00N 57°47' E 010°15'710.8
2018-Apr-22 08:24N 57°48' E 010°02'510.9
2018-Apr-22 07:55N 57°49' E 009°53'511.0
2018-Apr-22 07:30N 57°49' E 009°44'611.2
2018-Apr-22 07:00N 57°50' E 009°34'710.9
2018-Apr-22 06:23N 57°51' E 009°21'610.6
2018-Apr-22 05:49N 57°51' E 009°10'310.2
2018-Apr-22 05:30N 57°51' E 009°04'510.0
2018-Apr-22 05:00N 57°52' E 008°55'5 9.8
2018-Apr-22 04:29N 57°52' E 008°45'5 9.7
2018-Apr-22 04:00N 57°53' E 008°36'510.0
2018-Apr-22 03:29N 57°53' E 008°26'510.4
2018-Apr-22 03:00N 57°53' E 008°17'510.4
2018-Apr-22 02:30N 57°54' E 008°07'510.4
2018-Apr-22 02:00N 57°54' E 007°57'510.4
2018-Apr-22 01:30N 57°55' E 007°48'510.2
2018-Apr-22 01:00N 57°55' E 007°38'510.0
2018-Apr-22 00:30N 57°56' E 007°29'5 9.8
2018-Apr-22 00:00N 57°56' E 007°19'510.2
2018-Apr-21 23:31N 57°56' E 007°10'510.5
2018-Apr-21 23:00N 57°57' E 007°00'510.8
2018-Apr-21 22:30N 57°58' E 006°50'510.6
2018-Apr-21 22:00N 57°60' E 006°41'510.3
2018-Apr-21 21:31N 58°01' E 006°32'610.7
2018-Apr-21 20:59N 58°05' E 006°24'510.6
2018-Apr-21 20:30N 58°10' E 006°19'510.5
2018-Apr-21 20:00N 58°14' E 006°14'4 8.8
2018-Apr-21 19:30N 58°19' E 006°15'1 2.2
2018-Apr-21 19:00N 58°20' E 006°16'0 0.0
2018-Apr-21 18:25N 58°20' E 006°16'0 0.0
2018-Apr-21 17:58N 58°20' E 006°16'0 0.0
2018-Apr-21 17:25N 58°20' E 006°16'0 0.0
2018-Apr-21 16:58N 58°20' E 006°16'0 0.0
2018-Apr-21 16:22N 58°20' E 006°16'0 0.0
2018-Apr-21 15:52N 58°20' E 006°16'0 0.0
2018-Apr-21 15:22N 58°20' E 006°16'0 0.0
2018-Apr-21 14:58N 58°20' E 006°16'0 0.0
2018-Apr-21 14:25N 58°20' E 006°16'0 0.0
2018-Apr-21 13:58N 58°20' E 006°16'0 0.0
2018-Apr-21 13:25N 58°20' E 006°16'0 0.0
2018-Apr-21 12:58N 58°20' E 006°16'0 0.0
2018-Apr-21 12:22N 58°20' E 006°16'0 0.0
2018-Apr-21 11:58N 58°20' E 006°16'0 0.0
2018-Apr-21 11:28N 58°20' E 006°16'0 0.0
2018-Apr-21 10:52N 58°20' E 006°16'0 0.0
2018-Apr-21 10:31N 58°20' E 006°16'1 2.6
2018-Apr-21 10:01N 58°18' E 006°15'5 9.1
2018-Apr-21 09:30N 58°14' E 006°13'510.8
2018-Apr-21 09:00N 58°08' E 006°12'611.1
2018-Apr-21 08:30N 58°03' E 006°11'911.2
2018-Apr-21 07:42N 57°54' E 006°07'211.1
2018-Apr-21 07:29N 57°52' E 006°06'26210.5
2018-Apr-20 06:30N 53°34' E 004°47'812.1
2018-Apr-20 05:53N 53°26' E 004°42'512.0
2018-Apr-20 05:29N 53°22' E 004°39'1811.3
2018-Apr-20 03:52N 53°06' E 004°26'410.6
2018-Apr-20 03:30N 53°02' E 004°23'510.5
2018-Apr-20 03:00N 52°58' E 004°19'510.3
2018-Apr-20 02:30N 52°53' E 004°15'510.2
2018-Apr-20 02:01N 52°49' E 004°11'6 9.7
2018-Apr-20 01:25N 52°43' E 004°09'510.4
2018-Apr-20 00:57N 52°39' E 004°14'510.5
2018-Apr-20 00:30N 52°36' E 004°19'510.6
2018-Apr-20 00:00N 52°32' E 004°25'510.7
2018-Apr-19 23:30N 52°28' E 004°31'3 5.1
2018-Apr-19 23:01N 52°28' E 004°36'2 3.6
2018-Apr-19 22:30N 52°28' E 004°39'1 1.8
2018-Apr-19 22:00N 52°28' E 004°40'0 0.0
2018-Apr-19 21:30N 52°28' E 004°40'0 0.0
2018-Apr-19 21:00N 52°28' E 004°40'0 0.0
2018-Apr-19 20:30N 52°28' E 004°40'0 0.0
2018-Apr-19 20:00N 52°28' E 004°40'0 0.0
2018-Apr-19 19:30N 52°28' E 004°40'0 0.0
2018-Apr-19 19:00N 52°28' E 004°40'0 0.0
2018-Apr-19 18:30N 52°28' E 004°40'0 0.0
2018-Apr-19 18:00N 52°28' E 004°40'0 0.0
2018-Apr-19 17:30N 52°28' E 004°40'0 0.0
2018-Apr-19 17:00N 52°28' E 004°40'0 0.0
2018-Apr-19 16:30N 52°28' E 004°40'0 0.0
2018-Apr-19 16:00N 52°28' E 004°40'0 0.0
2018-Apr-19 15:30N 52°28' E 004°40'0 0.0
2018-Apr-19 15:00N 52°28' E 004°40'0 0.0
2018-Apr-19 14:30N 52°28' E 004°40'0 0.0
2018-Apr-19 14:00N 52°28' E 004°40'0 0.0
2018-Apr-19 13:30N 52°28' E 004°40'0 0.0
2018-Apr-19 13:00N 52°28' E 004°40'0 0.0
2018-Apr-19 12:30N 52°28' E 004°40'0 0.0
2018-Apr-19 12:00N 52°28' E 004°40'0 0.0
2018-Apr-19 11:30N 52°28' E 004°40'0 0.0
2018-Apr-19 10:57N 52°28' E 004°40'0 0.0
2018-Apr-19 10:30N 52°28' E 004°40'0 0.0
2018-Apr-19 10:00N 52°28' E 004°40'0 0.0
2018-Apr-19 09:30N 52°28' E 004°40'0 0.0
2018-Apr-19 08:59N 52°28' E 004°40'0 0.0
2018-Apr-19 08:29N 52°28' E 004°40'0 0.0
2018-Apr-19 07:59N 52°28' E 004°40'0 0.0
2018-Apr-19 07:29N 52°28' E 004°40'0 0.0
2018-Apr-19 06:59N 52°28' E 004°40'0 0.0
2018-Apr-19 06:29N 52°28' E 004°40'0 0.0
2018-Apr-19 05:59N 52°28' E 004°40'0 0.0
2018-Apr-19 05:29N 52°28' E 004°40'0 0.0
2018-Apr-19 04:56N 52°28' E 004°40'0 0.0
2018-Apr-19 04:26N 52°28' E 004°40'0 0.0
2018-Apr-19 03:59N 52°28' E 004°40'0 0.0
2018-Apr-19 03:29N 52°28' E 004°40'0 0.0
2018-Apr-19 02:59N 52°28' E 004°40'0 0.0
2018-Apr-19 02:29N 52°28' E 004°40'0 0.0
2018-Apr-19 01:59N 52°28' E 004°40'0 0.0
2018-Apr-19 01:29N 52°28' E 004°40'0 0.0
2018-Apr-19 00:59N 52°28' E 004°40'0 0.0
2018-Apr-19 00:29N 52°28' E 004°40'0 0.0
2018-Apr-18 23:59N 52°28' E 004°40'0 0.0
2018-Apr-18 23:26N 52°28' E 004°40'0 0.0
2018-Apr-18 22:56N 52°28' E 004°40'0 0.0
2018-Apr-18 22:29N 52°28' E 004°40'0 0.0
2018-Apr-18 21:59N 52°28' E 004°40'0 0.0
2018-Apr-18 21:29N 52°28' E 004°40'0 0.0
2018-Apr-18 20:59N 52°28' E 004°40'0 0.0
2018-Apr-18 20:26N 52°28' E 004°40'0 0.0
2018-Apr-18 19:59N 52°28' E 004°40'0 0.0
2018-Apr-18 19:29N 52°28' E 004°40'0 0.0
2018-Apr-18 18:59N 52°28' E 004°40'0 0.0
2018-Apr-18 18:29N 52°28' E 004°40'0 0.0
2018-Apr-18 17:59N 52°28' E 004°40'0 0.0
2018-Apr-18 17:29N 52°28' E 004°40'0 0.0
2018-Apr-18 17:00N 52°28' E 004°40'2 3.7
2018-Apr-18 16:30N 52°28' E 004°37'0 0.5
2018-Apr-18 16:00N 52°28' E 004°37'2 5.0
2018-Apr-18 15:31N 52°28' E 004°33'510.2
2018-Apr-18 15:00N 52°29' E 004°24'3 7.1
2018-Apr-18 14:30N 52°29' E 004°18'5 9.3
2018-Apr-18 14:00N 52°30' E 004°11'5 9.4
2018-Apr-18 13:30N 52°33' E 004°06'710.5
2018-Apr-18 12:49N 52°40' E 004°03'310.7
2018-Apr-18 12:30N 52°44' E 004°01'510.9
2018-Apr-18 12:00N 52°49' E 003°58'611.0
2018-Apr-18 11:28N 52°54' E 003°60'3110.4
2018-Apr-18 08:27N 53°19' E 004°32'5 9.6
2018-Apr-18 07:56N 53°24' E 004°35'5 8.5
2018-Apr-18 07:19N 53°28' E 004°40'3 8.6
2018-Apr-18 07:00N 53°29' E 004°44'5 8.9
2018-Apr-18 06:26N 53°31' E 004°52'4 8.9
2018-Apr-18 06:00N 53°32' E 004°58'4 8.8
2018-Apr-18 05:30N 53°34' E 005°05'5 9.2
2018-Apr-18 05:00N 53°35' E 005°13'94 9.8
2018-Apr-17 19:21N 54°01' E 007°46'410.2
2018-Apr-17 19:00N 54°01' E 007°52'1310.0
2018-Apr-17 17:42N 54°00' E 008°14'211.7
2018-Apr-17 17:30N 53°60' E 008°18'613.2
2018-Apr-17 17:00N 53°59' E 008°29'712.8
2018-Apr-17 16:29N 53°56' E 008°40'612.4
2018-Apr-17 16:00N 53°51' E 008°45'510.6
2018-Apr-17 15:30N 53°51' E 008°54'5 9.8
2018-Apr-17 15:00N 53°52' E 009°02'4 8.2
2018-Apr-17 14:30N 53°54' E 009°09'0 0.1
2018-Apr-17 14:00N 53°54' E 009°09'0 0.7
2018-Apr-17 13:30N 53°54' E 009°09'4 7.2
2018-Apr-17 13:00N 53°57' E 009°13'4 8.3
2018-Apr-17 12:30N 53°60' E 009°18'4 7.6
2018-Apr-17 12:00N 54°04' E 009°19'4 8.1
2018-Apr-17 11:30N 54°08' E 009°20'4 7.9
2018-Apr-17 11:00N 54°10' E 009°25'4 8.8
2018-Apr-17 10:30N 54°12' E 009°32'4 8.3
2018-Apr-17 10:00N 54°15' E 009°37'4 7.1
2018-Apr-17 09:30N 54°18' E 009°41'3 5.2
2018-Apr-17 09:00N 54°20' E 009°43'3 6.1
2018-Apr-17 08:27N 54°22' E 009°48'22 5.0
2018-Apr-17 04:05N 54°31' E 010°22'5 9.8
2018-Apr-17 03:36N 54°33' E 010°29'1 9.8
2018-Apr-17 03:29N 54°33' E 010°31'5 9.6
2018-Apr-17 03:00N 54°34' E 010°38'5 9.7
2018-Apr-17 02:30N 54°35' E 010°47'5 9.2
2018-Apr-17 02:00N 54°35' E 010°55'5 9.2
2018-Apr-17 01:30N 54°36' E 011°03'5 9.5
2018-Apr-17 01:00N 54°36' E 011°11'5 9.8
2018-Apr-17 00:29N 54°34' E 011°19'4 9.4
2018-Apr-17 00:00N 54°32' E 011°26'5 9.4
2018-Apr-16 23:30N 54°30' E 011°33'5 9.9
2018-Apr-16 23:00N 54°28' E 011°41'5 9.7
2018-Apr-16 22:27N 54°27' E 011°50'9 9.8
2018-Apr-16 21:30N 54°27' E 012°06'4 8.4
2018-Apr-16 21:00N 54°30' E 012°11'5 9.7
2018-Apr-16 20:30N 54°35' E 012°14'46 9.6
2018-Apr-16 15:43N 54°55' E 013°25'32 9.2
2018-Apr-16 12:13N 55°10' E 014°15'2 9.8
2018-Apr-16 11:59N 55°12' E 014°17'610.0
2018-Apr-16 11:25N 55°17' E 014°24'410.1
2018-Apr-16 11:00N 55°20' E 014°28'510.7
2018-Apr-16 10:30N 55°24' E 014°34'610.0
2018-Apr-16 09:53N 55°28' E 014°43'4 9.9
2018-Apr-16 09:30N 55°30' E 014°48'510.0
2018-Apr-16 09:00N 55°32' E 014°56'5 9.9
2018-Apr-16 08:30N 55°35' E 015°03'6 9.9
2018-Apr-16 07:53N 55°38' E 015°13'4 9.9
2018-Apr-16 07:30N 55°40' E 015°18'5 9.9
2018-Apr-16 07:00N 55°42' E 015°26'510.1
2018-Apr-16 06:30N 55°45' E 015°34'510.6
2018-Apr-16 06:00N 55°48' E 015°42'510.2
2018-Apr-16 05:30N 55°50' E 015°49'510.2
2018-Apr-16 05:00N 55°53' E 015°57'510.3
2018-Apr-16 04:30N 55°56' E 016°05'510.2
2018-Apr-16 04:00N 55°58' E 016°13'510.2
2018-Apr-16 03:30N 56°01' E 016°21'510.2
2018-Apr-16 03:00N 56°04' E 016°28'510.2
2018-Apr-16 02:30N 56°06' E 016°36'510.1
2018-Apr-16 02:00N 56°09' E 016°44'510.0
2018-Apr-16 01:30N 56°12' E 016°51'510.0
2018-Apr-16 01:00N 56°15' E 016°58'510.1
2018-Apr-16 00:30N 56°19' E 017°05'19 0.5
2018-Apr-14 05:47N 56°04' E 016°43'2 8.9
2018-Apr-14 05:30N 56°02' E 016°40'4 8.9
2018-Apr-14 05:00N 55°60' E 016°33'4 8.7
2018-Apr-14 04:30N 55°58' E 016°26'4 8.6
2018-Apr-14 04:00N 55°56' E 016°19'4 8.5
2018-Apr-14 03:30N 55°54' E 016°13'4 8.4
2018-Apr-14 03:00N 55°51' E 016°06'4 8.5
2018-Apr-14 02:30N 55°49' E 015°60'4 8.5
2018-Apr-14 02:00N 55°47' E 015°53'4 8.5
2018-Apr-14 01:30N 55°45' E 015°47'4 8.6
2018-Apr-14 01:00N 55°43' E 015°40'4 8.6
2018-Apr-14 00:30N 55°41' E 015°34'4 8.7
2018-Apr-14 00:00N 55°38' E 015°27'4 8.6
2018-Apr-13 23:30N 55°36' E 015°20'4 8.1
2018-Apr-13 23:00N 55°34' E 015°14'4 7.9
2018-Apr-13 22:30N 55°32' E 015°08'4 7.5
2018-Apr-13 22:00N 55°30' E 015°03'4 7.4
2018-Apr-13 21:27N 55°28' E 014°57'3 7.0
2018-Apr-13 21:01N 55°26' E 014°52'4 7.2
2018-Apr-13 20:30N 55°25' E 014°46'4 7.2
2018-Apr-13 20:00N 55°23' E 014°41'3 6.7
2018-Apr-13 19:31N 55°21' E 014°37'3 6.4
2018-Apr-13 19:00N 55°18' E 014°33'3 6.6
2018-Apr-13 18:28N 55°15' E 014°29'3 6.3
2018-Apr-13 18:00N 55°13' E 014°26'4 6.8
2018-Apr-13 17:27N 55°10' E 014°21'3 7.3
2018-Apr-13 16:59N 55°10' E 014°15'4 7.6
2018-Apr-13 16:29N 55°11' E 014°08'9 6.7
2018-Apr-13 15:09N 55°11' E 013°53'17 6.4
2018-Apr-13 12:28N 55°13' E 013°23'3 7.3
2018-Apr-13 12:00N 55°13' E 013°17'4 7.1
2018-Apr-13 11:24N 55°13' E 013°09'3 6.7
2018-Apr-13 10:59N 55°14' E 013°04'4 6.6
2018-Apr-13 10:27N 55°14' E 012°58'3 7.0
2018-Apr-13 10:00N 55°15' E 012°53'4 7.5
2018-Apr-13 09:28N 55°16' E 012°46'4 8.5
2018-Apr-13 09:00N 55°18' E 012°40'4 8.6
2018-Apr-13 08:30N 55°22' E 012°39'510.2
2018-Apr-13 08:00N 55°27' E 012°40'5 9.3
2018-Apr-13 07:30N 55°31' E 012°42'4 8.9
2018-Apr-13 07:00N 55°36' E 012°42'4 8.4
2018-Apr-13 06:30N 55°40' E 012°41'4 8.5
2018-Apr-13 06:00N 55°44' E 012°41'4 8.9
2018-Apr-13 05:30N 55°49' E 012°42'4 8.3
2018-Apr-13 05:00N 55°53' E 012°39'4 8.5
2018-Apr-13 04:30N 55°57' E 012°38'4 8.6
2018-Apr-13 04:00N 56°01' E 012°38'3 6.5
2018-Apr-13 03:30N 56°04' E 012°36'3 5.7
2018-Apr-13 03:00N 56°06' E 012°32'  
Track history (hours):
 
Tides and Currents Weather Stations Pressure Air Temp Water Temp Dewpoint Dewpoint Depression Visibility Wind Speed Wind Dir Waves Ship Positions

Sp Venture

Last reported at 2018-Apr-22 20:04 UTC. Time now 2018-Apr-24 02:49 UTC.
Position N 56°26' E 011°04'.

Length 90 m; draft 6.1 m.

Type: Cargo ship. MMSI: 311000658.

Date/timePositionNaut miles runAvg speedWind from/ knotsBaromVisibWave heightAir tempDewpointWater temp
2018-Apr-22 20:04N 56°26' E 011°04'1 8.5
2018-Apr-22 19:57N 56°27' E 011°04'4 8.8
2018-Apr-22 19:30N 56°31' E 011°03'4 9.1
2018-Apr-22 19:01N 56°35' E 011°02'4 8.9
2018-Apr-22 18:31N 56°40' E 011°01'4 8.7
2018-Apr-22 18:00N 56°44' E 010°60'4 8.9
2018-Apr-22 17:31N 56°47' E 010°54'5 9.2
2018-Apr-22 17:00N 56°51' E 010°48'4 8.5
2018-Apr-22 16:30N 56°55' E 010°49'6 8.9
2018-Apr-22 15:53N 57°00' E 010°50'3 9.1
2018-Apr-22 15:30N 57°04' E 010°49'4 9.0
2018-Apr-22 15:00N 57°08' E 010°46'6 9.1
2018-Apr-22 14:19N 57°14' E 010°43'3 8.8
2018-Apr-22 14:00N 57°17' E 010°42'4 8.7
2018-Apr-22 13:31N 57°21' E 010°43'4 8.5
2018-Apr-22 13:00N 57°25' E 010°43'4 8.8
2018-Apr-22 12:31N 57°30' E 010°44'4 8.6
2018-Apr-22 12:01N 57°34' E 010°44'4 8.6
2018-Apr-22 11:30N 57°38' E 010°45'4 8.5
2018-Apr-22 11:00N 57°42' E 010°45'4 8.4
2018-Apr-22 10:31N 57°46' E 010°43'510.2
2018-Apr-22 09:59N 57°47' E 010°33'5 9.9
2018-Apr-22 09:28N 57°47' E 010°24'510.4
2018-Apr-22 09:00N 57°47' E 010°15'710.8
2018-Apr-22 08:24N 57°48' E 010°02'510.9
2018-Apr-22 07:55N 57°49' E 009°53'511.0
2018-Apr-22 07:30N 57°49' E 009°44'611.2
2018-Apr-22 07:00N 57°50' E 009°34'710.9
2018-Apr-22 06:23N 57°51' E 009°21'610.6
2018-Apr-22 05:49N 57°51' E 009°10'310.2
2018-Apr-22 05:30N 57°51' E 009°04'510.0
2018-Apr-22 05:00N 57°52' E 008°55'5 9.8
2018-Apr-22 04:29N 57°52' E 008°45'5 9.7
2018-Apr-22 04:00N 57°53' E 008°36'510.0
2018-Apr-22 03:29N 57°53' E 008°26'510.4
2018-Apr-22 03:00N 57°53' E 008°17'510.4
2018-Apr-22 02:30N 57°54' E 008°07'510.4
2018-Apr-22 02:00N 57°54' E 007°57'510.4
2018-Apr-22 01:30N 57°55' E 007°48'510.2
2018-Apr-22 01:00N 57°55' E 007°38'510.0
2018-Apr-22 00:30N 57°56' E 007°29'5 9.8
2018-Apr-22 00:00N 57°56' E 007°19'510.2
2018-Apr-21 23:31N 57°56' E 007°10'510.5
2018-Apr-21 23:00N 57°57' E 007°00'510.8
2018-Apr-21 22:30N 57°58' E 006°50'510.6
2018-Apr-21 22:00N 57°60' E 006°41'510.3
2018-Apr-21 21:31N 58°01' E 006°32'610.7
2018-Apr-21 20:59N 58°05' E 006°24'510.6
2018-Apr-21 20:30N 58°10' E 006°19'510.5
2018-Apr-21 20:00N 58°14' E 006°14'4 8.8
2018-Apr-21 19:30N 58°19' E 006°15'1 2.2
2018-Apr-21 19:00N 58°20' E 006°16'0 0.0
2018-Apr-21 18:25N 58°20' E 006°16'0 0.0
2018-Apr-21 17:58N 58°20' E 006°16'0 0.0
2018-Apr-21 17:25N 58°20' E 006°16'0 0.0
2018-Apr-21 16:58N 58°20' E 006°16'0 0.0
2018-Apr-21 16:22N 58°20' E 006°16'0 0.0
2018-Apr-21 15:52N 58°20' E 006°16'0 0.0
2018-Apr-21 15:22N 58°20' E 006°16'0 0.0
2018-Apr-21 14:58N 58°20' E 006°16'0 0.0
2018-Apr-21 14:25N 58°20' E 006°16'0 0.0
2018-Apr-21 13:58N 58°20' E 006°16'0 0.0
2018-Apr-21 13:25N 58°20' E 006°16'0 0.0
2018-Apr-21 12:58N 58°20' E 006°16'0 0.0
2018-Apr-21 12:22N 58°20' E 006°16'0 0.0
2018-Apr-21 11:58N 58°20' E 006°16'0 0.0
2018-Apr-21 11:28N 58°20' E 006°16'0 0.0
2018-Apr-21 10:52N 58°20' E 006°16'0 0.0
2018-Apr-21 10:31N 58°20' E 006°16'1 2.6
2018-Apr-21 10:01N 58°18' E 006°15'5 9.1
2018-Apr-21 09:30N 58°14' E 006°13'510.8
2018-Apr-21 09:00N 58°08' E 006°12'611.1
2018-Apr-21 08:30N 58°03' E 006°11'911.2
2018-Apr-21 07:42N 57°54' E 006°07'211.1
2018-Apr-21 07:29N 57°52' E 006°06'26210.5
2018-Apr-20 06:30N 53°34' E 004°47'812.1
2018-Apr-20 05:53N 53°26' E 004°42'512.0
2018-Apr-20 05:29N 53°22' E 004°39'1811.3
2018-Apr-20 03:52N 53°06' E 004°26'410.6
2018-Apr-20 03:30N 53°02' E 004°23'510.5
2018-Apr-20 03:00N 52°58' E 004°19'510.3
2018-Apr-20 02:30N 52°53' E 004°15'510.2
2018-Apr-20 02:01N 52°49' E 004°11'6 9.7
2018-Apr-20 01:25N 52°43' E 004°09'510.4
2018-Apr-20 00:57N 52°39' E 004°14'510.5
2018-Apr-20 00:30N 52°36' E 004°19'510.6
2018-Apr-20 00:00N 52°32' E 004°25'510.7
2018-Apr-19 23:30N 52°28' E 004°31'3 5.1
2018-Apr-19 23:01N 52°28' E 004°36'2 3.6
2018-Apr-19 22:30N 52°28' E 004°39'1 1.8
2018-Apr-19 22:00N 52°28' E 004°40'0 0.0
2018-Apr-19 21:30N 52°28' E 004°40'0 0.0
2018-Apr-19 21:00N 52°28' E 004°40'0 0.0
2018-Apr-19 20:30N 52°28' E 004°40'0 0.0
2018-Apr-19 20:00N 52°28' E 004°40'0 0.0
2018-Apr-19 19:30N 52°28' E 004°40'0 0.0
2018-Apr-19 19:00N 52°28' E 004°40'0 0.0
2018-Apr-19 18:30N 52°28' E 004°40'0 0.0
2018-Apr-19 18:00N 52°28' E 004°40'0 0.0
2018-Apr-19 17:30N 52°28' E 004°40'0 0.0
2018-Apr-19 17:00N 52°28' E 004°40'0 0.0
2018-Apr-19 16:30N 52°28' E 004°40'0 0.0
2018-Apr-19 16:00N 52°28' E 004°40'0 0.0
2018-Apr-19 15:30N 52°28' E 004°40'0 0.0
2018-Apr-19 15:00N 52°28' E 004°40'0 0.0
2018-Apr-19 14:30N 52°28' E 004°40'0 0.0
2018-Apr-19 14:00N 52°28' E 004°40'0 0.0
2018-Apr-19 13:30N 52°28' E 004°40'0 0.0
2018-Apr-19 13:00N 52°28' E 004°40'0 0.0
2018-Apr-19 12:30N 52°28' E 004°40'0 0.0
2018-Apr-19 12:00N 52°28' E 004°40'0 0.0
2018-Apr-19 11:30N 52°28' E 004°40'0 0.0
2018-Apr-19 10:57N 52°28' E 004°40'0 0.0
2018-Apr-19 10:30N 52°28' E 004°40'0 0.0
2018-Apr-19 10:00N 52°28' E 004°40'0 0.0
2018-Apr-19 09:30N 52°28' E 004°40'0 0.0
2018-Apr-19 08:59N 52°28' E 004°40'0 0.0
2018-Apr-19 08:29N 52°28' E 004°40'0 0.0
2018-Apr-19 07:59N 52°28' E 004°40'0 0.0
2018-Apr-19 07:29N 52°28' E 004°40'0 0.0
2018-Apr-19 06:59N 52°28' E 004°40'0 0.0
2018-Apr-19 06:29N 52°28' E 004°40'0 0.0
2018-Apr-19 05:59N 52°28' E 004°40'0 0.0
2018-Apr-19 05:29N 52°28' E 004°40'0 0.0
2018-Apr-19 04:56N 52°28' E 004°40'0 0.0
2018-Apr-19 04:26N 52°28' E 004°40'0 0.0
2018-Apr-19 03:59N 52°28' E 004°40'0 0.0
2018-Apr-19 03:29N 52°28' E 004°40'0 0.0
2018-Apr-19 02:59N 52°28' E 004°40'0 0.0
2018-Apr-19 02:29N 52°28' E 004°40'0 0.0
2018-Apr-19 01:59N 52°28' E 004°40'0 0.0
2018-Apr-19 01:29N 52°28' E 004°40'0 0.0
2018-Apr-19 00:59N 52°28' E 004°40'0 0.0
2018-Apr-19 00:29N 52°28' E 004°40'0 0.0
2018-Apr-18 23:59N 52°28' E 004°40'0 0.0
2018-Apr-18 23:26N 52°28' E 004°40'0 0.0
2018-Apr-18 22:56N 52°28' E 004°40'0 0.0
2018-Apr-18 22:29N 52°28' E 004°40'0 0.0
2018-Apr-18 21:59N 52°28' E 004°40'0 0.0
2018-Apr-18 21:29N 52°28' E 004°40'0 0.0
2018-Apr-18 20:59N 52°28' E 004°40'0 0.0
2018-Apr-18 20:26N 52°28' E 004°40'0 0.0
2018-Apr-18 19:59N 52°28' E 004°40'0 0.0
2018-Apr-18 19:29N 52°28' E 004°40'0 0.0
2018-Apr-18 18:59N 52°28' E 004°40'0 0.0
2018-Apr-18 18:29N 52°28' E 004°40'0 0.0
2018-Apr-18 17:59N 52°28' E 004°40'0 0.0
2018-Apr-18 17:29N 52°28' E 004°40'0 0.0
2018-Apr-18 17:00N 52°28' E 004°40'2 3.7
2018-Apr-18 16:30N 52°28' E 004°37'0 0.5
2018-Apr-18 16:00N 52°28' E 004°37'2 5.0
2018-Apr-18 15:31N 52°28' E 004°33'510.2
2018-Apr-18 15:00N 52°29' E 004°24'3 7.1
2018-Apr-18 14:30N 52°29' E 004°18'5 9.3
2018-Apr-18 14:00N 52°30' E 004°11'5 9.4
2018-Apr-18 13:30N 52°33' E 004°06'710.5
2018-Apr-18 12:49N 52°40' E 004°03'310.7
2018-Apr-18 12:30N 52°44' E 004°01'510.9
2018-Apr-18 12:00N 52°49' E 003°58'611.0
2018-Apr-18 11:28N 52°54' E 003°60'3110.4
2018-Apr-18 08:27N 53°19' E 004°32'5 9.6
2018-Apr-18 07:56N 53°24' E 004°35'5 8.5
2018-Apr-18 07:19N 53°28' E 004°40'3 8.6
2018-Apr-18 07:00N 53°29' E 004°44'5 8.9
2018-Apr-18 06:26N 53°31' E 004°52'4 8.9
2018-Apr-18 06:00N 53°32' E 004°58'4 8.8
2018-Apr-18 05:30N 53°34' E 005°05'5 9.2
2018-Apr-18 05:00N 53°35' E 005°13'94 9.8
2018-Apr-17 19:21N 54°01' E 007°46'410.2
2018-Apr-17 19:00N 54°01' E 007°52'1310.0
2018-Apr-17 17:42N 54°00' E 008°14'211.7
2018-Apr-17 17:30N 53°60' E 008°18'613.2
2018-Apr-17 17:00N 53°59' E 008°29'712.8
2018-Apr-17 16:29N 53°56' E 008°40'612.4
2018-Apr-17 16:00N 53°51' E 008°45'510.6
2018-Apr-17 15:30N 53°51' E 008°54'5 9.8
2018-Apr-17 15:00N 53°52' E 009°02'4 8.2
2018-Apr-17 14:30N 53°54' E 009°09'0 0.1
2018-Apr-17 14:00N 53°54' E 009°09'0 0.7
2018-Apr-17 13:30N 53°54' E 009°09'4 7.2
2018-Apr-17 13:00N 53°57' E 009°13'4 8.3
2018-Apr-17 12:30N 53°60' E 009°18'4 7.6
2018-Apr-17 12:00N 54°04' E 009°19'4 8.1
2018-Apr-17 11:30N 54°08' E 009°20'4 7.9
2018-Apr-17 11:00N 54°10' E 009°25'4 8.8
2018-Apr-17 10:30N 54°12' E 009°32'4 8.3
2018-Apr-17 10:00N 54°15' E 009°37'4 7.1
2018-Apr-17 09:30N 54°18' E 009°41'3 5.2
2018-Apr-17 09:00N 54°20' E 009°43'3 6.1
2018-Apr-17 08:27N 54°22' E 009°48'22 5.0
2018-Apr-17 04:05N 54°31' E 010°22'5 9.8
2018-Apr-17 03:36N 54°33' E 010°29'1 9.8
2018-Apr-17 03:29N 54°33' E 010°31'5 9.6
2018-Apr-17 03:00N 54°34' E 010°38'5 9.7
2018-Apr-17 02:30N 54°35' E 010°47'5 9.2
2018-Apr-17 02:00N 54°35' E 010°55'5 9.2
2018-Apr-17 01:30N 54°36' E 011°03'5 9.5
2018-Apr-17 01:00N 54°36' E 011°11'5 9.8
2018-Apr-17 00:29N 54°34' E 011°19'4 9.4
2018-Apr-17 00:00N 54°32' E 011°26'5 9.4
2018-Apr-16 23:30N 54°30' E 011°33'5 9.9
2018-Apr-16 23:00N 54°28' E 011°41'5 9.7
2018-Apr-16 22:27N 54°27' E 011°50'9 9.8
2018-Apr-16 21:30N 54°27' E 012°06'4 8.4
2018-Apr-16 21:00N 54°30' E 012°11'5 9.7
2018-Apr-16 20:30N 54°35' E 012°14'46 9.6
2018-Apr-16 15:43N 54°55' E 013°25'32 9.2
2018-Apr-16 12:13N 55°10' E 014°15'2 9.8
2018-Apr-16 11:59N 55°12' E 014°17'610.0
2018-Apr-16 11:25N 55°17' E 014°24'410.1
2018-Apr-16 11:00N 55°20' E 014°28'510.7
2018-Apr-16 10:30N 55°24' E 014°34'610.0
2018-Apr-16 09:53N 55°28' E 014°43'4 9.9
2018-Apr-16 09:30N 55°30' E 014°48'510.0
2018-Apr-16 09:00N 55°32' E 014°56'5 9.9
2018-Apr-16 08:30N 55°35' E 015°03'6 9.9
2018-Apr-16 07:53N 55°38' E 015°13'4 9.9
2018-Apr-16 07:30N 55°40' E 015°18'5 9.9
2018-Apr-16 07:00N 55°42' E 015°26'510.1
2018-Apr-16 06:30N 55°45' E 015°34'510.6
2018-Apr-16 06:00N 55°48' E 015°42'510.2
2018-Apr-16 05:30N 55°50' E 015°49'510.2
2018-Apr-16 05:00N 55°53' E 015°57'510.3
2018-Apr-16 04:30N 55°56' E 016°05'510.2
2018-Apr-16 04:00N 55°58' E 016°13'510.2
2018-Apr-16 03:30N 56°01' E 016°21'510.2
2018-Apr-16 03:00N 56°04' E 016°28'510.2
2018-Apr-16 02:30N 56°06' E 016°36'510.1
2018-Apr-16 02:00N 56°09' E 016°44'510.0
2018-Apr-16 01:30N 56°12' E 016°51'510.0
2018-Apr-16 01:00N 56°15' E 016°58'510.1
2018-Apr-16 00:30N 56°19' E 017°05'19 0.5
2018-Apr-14 05:47N 56°04' E 016°43'2 8.9
2018-Apr-14 05:30N 56°02' E 016°40'4 8.9
2018-Apr-14 05:00N 55°60' E 016°33'4 8.7
2018-Apr-14 04:30N 55°58' E 016°26'4 8.6
2018-Apr-14 04:00N 55°56' E 016°19'4 8.5
2018-Apr-14 03:30N 55°54' E 016°13'4 8.4
2018-Apr-14 03:00N 55°51' E 016°06'4 8.5
2018-Apr-14 02:30N 55°49' E 015°60'4 8.5
2018-Apr-14 02:00N 55°47' E 015°53'4 8.5
2018-Apr-14 01:30N 55°45' E 015°47'4 8.6
2018-Apr-14 01:00N 55°43' E 015°40'4 8.6
2018-Apr-14 00:30N 55°41' E 015°34'4 8.7
2018-Apr-14 00:00N 55°38' E 015°27'4 8.6
2018-Apr-13 23:30N 55°36' E 015°20'4 8.1
2018-Apr-13 23:00N 55°34' E 015°14'4 7.9
2018-Apr-13 22:30N 55°32' E 015°08'4 7.5
2018-Apr-13 22:00N 55°30' E 015°03'4 7.4
2018-Apr-13 21:27N 55°28' E 014°57'3 7.0
2018-Apr-13 21:01N 55°26' E 014°52'4 7.2
2018-Apr-13 20:30N 55°25' E 014°46'4 7.2
2018-Apr-13 20:00N 55°23' E 014°41'3 6.7
2018-Apr-13 19:31N 55°21' E 014°37'3 6.4
2018-Apr-13 19:00N 55°18' E 014°33'3 6.6
2018-Apr-13 18:28N 55°15' E 014°29'3 6.3
2018-Apr-13 18:00N 55°13' E 014°26'4 6.8
2018-Apr-13 17:27N 55°10' E 014°21'3 7.3
2018-Apr-13 16:59N 55°10' E 014°15'4 7.6
2018-Apr-13 16:29N 55°11' E 014°08'9 6.7
2018-Apr-13 15:09N 55°11' E 013°53'17 6.4
2018-Apr-13 12:28N 55°13' E 013°23'3 7.3
2018-Apr-13 12:00N 55°13' E 013°17'4 7.1
2018-Apr-13 11:24N 55°13' E 013°09'3 6.7
2018-Apr-13 10:59N 55°14' E 013°04'4 6.6
2018-Apr-13 10:27N 55°14' E 012°58'3 7.0
2018-Apr-13 10:00N 55°15' E 012°53'4 7.5
2018-Apr-13 09:28N 55°16' E 012°46'4 8.5
2018-Apr-13 09:00N 55°18' E 012°40'4 8.6
2018-Apr-13 08:30N 55°22' E 012°39'510.2
2018-Apr-13 08:00N 55°27' E 012°40'5 9.3
2018-Apr-13 07:30N 55°31' E 012°42'4 8.9
2018-Apr-13 07:00N 55°36' E 012°42'4 8.4
2018-Apr-13 06:30N 55°40' E 012°41'4 8.5
2018-Apr-13 06:00N 55°44' E 012°41'4 8.9
2018-Apr-13 05:30N 55°49' E 012°42'4 8.3
2018-Apr-13 05:00N 55°53' E 012°39'4 8.5
2018-Apr-13 04:30N 55°57' E 012°38'4 8.6
2018-Apr-13 04:00N 56°01' E 012°38'3 6.5
2018-Apr-13 03:30N 56°04' E 012°36'3 5.7
2018-Apr-13 03:00N 56°06' E 012°32'  

Dump ship's entire track history